createdAt,value
2018-08-28T00:01:14.928Z,97194.27
2018-08-28T00:03:43.273Z,97195.90
2018-08-28T00:06:12.076Z,97196.34
2018-08-28T00:08:40.408Z,97191.57
2018-08-28T00:11:08.751Z,97205.95
2018-08-28T00:13:37.084Z,97199.76
2018-08-28T00:16:05.476Z,97204.91
2018-08-28T00:18:34.246Z,97208.48
2018-08-28T00:21:02.640Z,97204.98
2018-08-28T00:23:31.024Z,97207.48
2018-08-28T00:25:59.369Z,97206.53
2018-08-28T00:28:27.700Z,97209.14
2018-08-28T00:30:56.088Z,97209.79
2018-08-28T00:33:24.420Z,97207.54
2018-08-28T00:35:53.204Z,97209.93
2018-08-28T00:38:21.548Z,97214.98
2018-08-28T00:40:49.920Z,97212.25
2018-08-28T00:43:18.534Z,97212.02
2018-08-28T00:45:46.872Z,97217.69
2018-08-28T00:48:15.485Z,97208.67
2018-08-28T00:50:44.043Z,97211.89
2018-08-28T00:53:13.188Z,97211.20
2018-08-28T00:55:41.537Z,97213.81
2018-08-28T00:58:09.884Z,97208.82
2018-08-28T01:00:38.252Z,97210.73
2018-08-28T01:03:06.649Z,97211.44
2018-08-28T01:05:34.976Z,97212.84
2018-08-28T01:08:03.324Z,97217.75
2018-08-28T01:10:31.748Z,97210.46
2018-08-28T01:13:00.104Z,97212.22
2018-08-28T01:15:28.458Z,97215.08
2018-08-28T01:17:56.826Z,97215.84
2018-08-28T01:20:25.181Z,97214.44
2018-08-28T01:22:53.540Z,97215.13
2018-08-28T01:25:22.104Z,97215.95
2018-08-28T01:27:50.472Z,97226.33
2018-08-28T01:30:22.936Z,97225.58
2018-08-28T01:32:51.345Z,97221.38
2018-08-28T01:35:19.808Z,97228.98
2018-08-28T01:37:48.152Z,97225.91
2018-08-28T01:40:16.784Z,97225.20
2018-08-28T01:42:45.158Z,97227.30
2018-08-28T01:45:13.492Z,97229.33
2018-08-28T01:47:42.195Z,97231.05
2018-08-28T01:50:10.516Z,97242.20
2018-08-28T01:52:38.911Z,97244.72
2018-08-28T01:55:07.285Z,97244.94
2018-08-28T01:57:35.649Z,97240.47
2018-08-28T02:00:04.208Z,97237.78
2018-08-28T02:02:32.556Z,97244.10
2018-08-28T02:05:00.912Z,97245.70
2018-08-28T02:07:29.666Z,97238.02
2018-08-28T02:09:58.028Z,97239.12
2018-08-28T02:12:26.809Z,97240.81
2018-08-28T02:14:55.128Z,97238.41
2018-08-28T02:17:23.532Z,97236.13
2018-08-28T02:19:51.876Z,97235.09
2018-08-28T02:22:20.212Z,97238.93
2018-08-28T02:24:48.551Z,97239.06
2018-08-28T02:27:17.260Z,97241.98
2018-08-28T02:29:45.592Z,97248.34
2018-08-28T02:32:13.939Z,97244.31
2018-08-28T02:34:42.284Z,97245.05
2018-08-28T02:37:10.968Z,97244.16
2018-08-28T02:39:39.313Z,97240.53
2018-08-28T02:42:07.652Z,97243.67
2018-08-28T02:44:36.004Z,97247.36
2018-08-28T02:47:04.415Z,97241.59
2018-08-28T02:49:32.740Z,97237.85
2018-08-28T02:52:01.100Z,97245.33
2018-08-28T02:54:29.470Z,97240.77
2018-08-28T02:56:57.845Z,97244.20
2018-08-28T02:59:26.596Z,97241.14
2018-08-28T03:01:54.924Z,97242.80
2018-08-28T03:04:23.284Z,97244.58
2018-08-28T03:06:51.608Z,97242.80
2018-08-28T03:09:19.956Z,97242.19
2018-08-28T03:11:48.293Z,97244.22
2018-08-28T03:14:16.705Z,97245.98
2018-08-28T03:16:45.053Z,97249.00
2018-08-28T03:19:13.408Z,97248.89
2018-08-28T03:21:41.792Z,97246.20
2018-08-28T03:24:10.157Z,97244.44
2018-08-28T03:26:38.941Z,97247.88
2018-08-28T03:29:07.779Z,97251.37
2018-08-28T03:31:36.004Z,97253.88
2018-08-28T03:34:04.756Z,97248.37
2018-08-28T03:36:33.101Z,97254.98
2018-08-28T03:39:01.484Z,97257.19
2018-08-28T03:41:30.195Z,97251.84
2018-08-28T03:43:58.612Z,97252.41
2018-08-28T03:46:26.935Z,97253.29
2018-08-28T03:48:55.320Z,97258.95
2018-08-28T03:51:23.707Z,97261.41
2018-08-28T03:53:52.309Z,97258.13
2018-08-28T03:56:20.627Z,97257.50
2018-08-28T03:58:48.972Z,97263.03
2018-08-28T04:01:17.301Z,97257.37
2018-08-28T04:03:45.701Z,97264.55
2018-08-28T04:06:14.132Z,97263.45
2018-08-28T04:08:42.499Z,97265.20
2018-08-28T04:11:10.836Z,97263.03
2018-08-28T04:13:39.247Z,97264.75
2018-08-28T04:16:07.564Z,97263.98
2018-08-28T04:18:36.908Z,97268.64
2018-08-28T04:21:05.256Z,97265.50
2018-08-28T04:23:33.604Z,97261.23
2018-08-28T04:26:01.941Z,97273.70
2018-08-28T04:28:30.309Z,97266.86
2018-08-28T04:30:58.670Z,97267.58
2018-08-28T04:33:27.005Z,97272.76
2018-08-28T04:35:55.345Z,97272.53
2018-08-28T04:38:23.689Z,97277.91
2018-08-28T04:40:52.063Z,97279.95
2018-08-28T04:43:20.393Z,97278.42
2018-08-28T04:45:48.749Z,97278.89
2018-08-28T04:48:17.137Z,97283.41
2018-08-28T04:50:45.608Z,97283.91
2018-08-28T04:53:13.948Z,97277.80
2018-08-28T04:55:42.584Z,97280.92
2018-08-28T04:58:10.940Z,97282.27
2018-08-28T05:00:39.362Z,97288.17
2018-08-28T05:03:07.710Z,97286.06
2018-08-28T05:05:36.060Z,97286.74
2018-08-28T05:08:04.396Z,97295.18
2018-08-28T05:10:32.758Z,97290.09
2018-08-28T05:13:01.112Z,97290.45
2018-08-28T05:15:29.476Z,97290.03
2018-08-28T05:17:57.807Z,97288.00
2018-08-28T05:20:26.472Z,97296.19
2018-08-28T05:22:54.815Z,97292.81
2018-08-28T05:25:23.164Z,97295.76
2018-08-28T05:27:51.957Z,97298.48
2018-08-28T05:30:20.371Z,97299.09
2018-08-28T05:32:48.692Z,97297.34
2018-08-28T05:35:17.064Z,97299.80
2018-08-28T05:37:45.396Z,97299.31
2018-08-28T05:40:14.218Z,97294.21
2018-08-28T05:42:42.552Z,97300.41
2018-08-28T05:45:10.925Z,97299.32
2018-08-28T05:47:39.244Z,97305.53
2018-08-28T05:50:07.635Z,97304.20
2018-08-28T05:52:35.985Z,97303.39
2018-08-28T05:55:04.396Z,97309.04
2018-08-28T05:57:33.096Z,97303.65
2018-08-28T06:00:01.449Z,97305.01
2018-08-28T06:02:29.797Z,97307.70
2018-08-28T06:04:58.166Z,97306.89
2018-08-28T06:07:26.539Z,97303.89
2018-08-28T06:09:54.883Z,97306.03
2018-08-28T06:12:23.249Z,97300.57
2018-08-28T06:14:51.983Z,97300.44
2018-08-28T06:17:20.652Z,97293.33
2018-08-28T06:19:48.992Z,97305.66
2018-08-28T06:22:17.323Z,97306.48
2018-08-28T06:24:46.040Z,97301.95
2018-08-28T06:27:14.377Z,97308.51
2018-08-28T06:29:42.732Z,97310.33
2018-08-28T06:32:11.064Z,97307.55
2018-08-28T06:34:39.420Z,97303.85
2018-08-28T06:37:07.786Z,97309.27
2018-08-28T06:39:37.057Z,97304.50
2018-08-28T06:42:05.412Z,97310.16
2018-08-28T06:44:33.766Z,97306.90
2018-08-28T06:47:02.312Z,97313.77
2018-08-28T06:49:30.668Z,97314.31
2018-08-28T06:51:59.028Z,97315.89
2018-08-28T06:54:27.404Z,97311.77
2018-08-28T06:56:56.293Z,97307.34
2018-08-28T06:59:24.512Z,97303.84
2018-08-28T07:01:53.078Z,97308.36
2018-08-28T07:04:22.632Z,97297.20
2018-08-28T07:06:50.989Z,97301.03
2018-08-28T07:09:19.332Z,97298.29
2018-08-28T07:11:47.716Z,97302.81
2018-08-28T07:14:16.057Z,97305.89
2018-08-28T07:16:44.733Z,97311.31
2018-08-28T07:19:13.080Z,97298.23
2018-08-28T07:21:41.476Z,97305.63
2018-08-28T07:24:10.933Z,97308.13
2018-08-28T07:26:39.285Z,97306.78
2018-08-28T07:29:07.835Z,97303.91
2018-08-28T07:31:36.226Z,97301.38
2018-08-28T07:34:04.594Z,97308.52
2018-08-28T07:36:32.964Z,97303.69
2018-08-28T07:39:01.305Z,97309.86
2018-08-28T07:41:30.428Z,97301.50
2018-08-28T07:43:58.769Z,97309.87
2018-08-28T07:46:27.503Z,97306.41
2018-08-28T07:48:55.849Z,97301.31
2018-08-28T07:51:24.245Z,97303.67
2018-08-28T07:53:52.714Z,97306.11
2018-08-28T07:56:21.065Z,97303.36
2018-08-28T07:58:49.544Z,97308.38
2018-08-28T08:01:17.942Z,97313.36
2018-08-28T08:03:46.285Z,97321.67
2018-08-28T08:06:14.642Z,97322.22
2018-08-28T08:08:42.979Z,97312.48
2018-08-28T08:11:11.821Z,97329.36
2018-08-28T08:13:40.157Z,97321.08
2018-08-28T08:16:08.579Z,97331.27
2018-08-28T08:18:36.884Z,97340.32
2018-08-28T08:21:06.153Z,97336.23
2018-08-28T08:23:34.500Z,97332.87
2018-08-28T08:26:03.079Z,97333.31
2018-08-28T08:28:31.440Z,97343.11
2018-08-28T08:31:00.084Z,97334.55
2018-08-28T08:33:28.428Z,97341.73
2018-08-28T08:35:56.788Z,97337.77
2018-08-28T08:38:26.068Z,97339.56
2018-08-28T08:40:54.420Z,97340.23
2018-08-28T08:43:22.777Z,97341.55
2018-08-28T08:45:51.124Z,97342.66
2018-08-28T08:48:19.489Z,97344.13
2018-08-28T08:50:47.826Z,97341.15
2018-08-28T08:53:16.188Z,97341.53
2018-08-28T08:55:45.431Z,97339.11
2018-08-28T08:58:13.792Z,97341.03
2018-08-28T09:00:42.128Z,97341.05
2018-08-28T09:03:10.916Z,97340.41
2018-08-28T09:05:39.278Z,97339.45
2018-08-28T09:08:07.930Z,97331.47
2018-08-28T09:10:36.477Z,97333.33
2018-08-28T09:13:04.868Z,97333.28
2018-08-28T09:15:33.939Z,97328.66
2018-08-28T09:18:02.299Z,97334.30
2018-08-28T09:20:30.652Z,97327.64
2018-08-28T09:22:59.009Z,97323.25
2018-08-28T09:25:27.812Z,97320.55
2018-08-28T09:27:56.157Z,97321.77
2018-08-28T09:30:24.744Z,97311.94
2018-08-28T09:32:53.092Z,97304.84
2018-08-28T09:35:21.465Z,97310.16
2018-08-28T09:37:49.820Z,97315.20
2018-08-28T09:40:18.164Z,97321.26
2018-08-28T09:42:46.537Z,97317.16
2018-08-28T09:45:14.888Z,97319.14
2018-08-28T09:47:43.241Z,97311.48
2018-08-28T09:50:11.588Z,97313.13
2018-08-28T09:52:39.933Z,97312.96
2018-08-28T09:55:08.285Z,97298.91
2018-08-28T09:57:36.850Z,97301.45
2018-08-28T10:00:05.907Z,97304.84
2018-08-28T10:02:34.393Z,97297.78
2018-08-28T10:05:02.985Z,97298.70
2018-08-28T10:07:31.357Z,97305.55
2018-08-28T10:09:59.699Z,97294.95
2018-08-28T10:12:28.441Z,97298.89
2018-08-28T10:14:56.772Z,97297.23
2018-08-28T10:17:25.201Z,97296.81
2018-08-28T10:19:53.488Z,97294.63
2018-08-28T10:22:21.840Z,97294.25
2018-08-28T10:24:51.148Z,97287.94
2018-08-28T10:27:19.552Z,97287.84
2018-08-28T10:29:47.905Z,97281.90
2018-08-28T10:32:16.263Z,97278.48
2018-08-28T10:34:44.597Z,97281.20
2018-08-28T10:37:12.948Z,97280.19
2018-08-28T10:39:41.290Z,97276.42
2018-08-28T10:42:09.633Z,97277.14
2018-08-28T10:44:38.592Z,97269.67
2018-08-28T10:47:07.257Z,97269.84
2018-08-28T10:49:35.604Z,97264.92
2018-08-28T10:52:04.008Z,97260.30
2018-08-28T10:54:32.531Z,97254.22
2018-08-28T10:57:01.405Z,97258.17
2018-08-28T10:59:29.756Z,97257.86
2018-08-28T11:01:58.104Z,97255.94
2018-08-28T11:04:26.809Z,97247.70
2018-08-28T11:06:55.155Z,97245.62
2018-08-28T11:09:23.512Z,97256.56
2018-08-28T11:11:52.286Z,97248.56
2018-08-28T11:14:21.044Z,97241.42
2018-08-28T11:16:49.829Z,97238.91
2018-08-28T11:19:18.208Z,97244.69
2018-08-28T11:21:46.562Z,97245.76
2018-08-28T11:24:14.924Z,97243.96
2018-08-28T11:26:43.245Z,97250.14
2018-08-28T11:29:11.892Z,97239.73
2018-08-28T11:31:40.240Z,97243.61
2018-08-28T11:34:08.609Z,97249.86
2018-08-28T11:36:36.972Z,97246.19
2018-08-28T11:39:06.057Z,97250.88
2018-08-28T11:41:34.429Z,97236.42
2018-08-28T11:44:03.089Z,97232.05
2018-08-28T11:46:31.438Z,97232.30
2018-08-28T11:48:59.815Z,97217.91
2018-08-28T11:51:28.554Z,97224.56
2018-08-28T11:53:56.904Z,97218.39
2018-08-28T11:56:25.338Z,97224.33
2018-08-28T11:58:54.101Z,97235.46
2018-08-28T12:01:22.468Z,97229.63
2018-08-28T12:03:50.844Z,97225.47
2018-08-28T12:06:19.821Z,97227.62
2018-08-28T12:08:48.168Z,97216.95
2018-08-28T12:11:16.520Z,97215.71
2018-08-28T12:13:44.892Z,97217.54
2018-08-28T12:16:13.283Z,97217.71
2018-08-28T12:18:41.638Z,97221.91
2018-08-28T12:21:09.985Z,97211.32
2018-08-28T12:23:38.768Z,97204.41
2018-08-28T12:26:07.520Z,97207.77
2018-08-28T12:28:35.872Z,97197.98
2018-08-28T12:31:04.215Z,97196.25
2018-08-28T12:33:32.717Z,97201.73
2018-08-28T12:36:01.062Z,97196.74
2018-08-28T12:38:29.420Z,97187.92
2018-08-28T12:40:57.844Z,97183.76
2018-08-28T12:43:26.424Z,97185.00
2018-08-28T12:45:54.772Z,97195.65
2018-08-28T12:48:23.124Z,97183.73
2018-08-28T12:50:51.501Z,97176.02
2018-08-28T12:53:19.934Z,97172.53
2018-08-28T12:55:48.470Z,97182.71
2018-08-28T12:58:17.076Z,97170.77
2018-08-28T13:00:45.643Z,97171.04
2018-08-28T13:03:14.592Z,97167.11
2018-08-28T13:05:42.939Z,97164.07
2018-08-28T13:08:11.292Z,97174.02
2018-08-28T13:10:39.659Z,97162.39
2018-08-28T13:13:08.004Z,97151.62
2018-08-28T13:15:36.369Z,97161.89
2018-08-28T13:18:05.120Z,97152.81
2018-08-28T13:20:33.464Z,97148.81
2018-08-28T13:23:01.824Z,97142.77
2018-08-28T13:25:30.309Z,97142.17
2018-08-28T13:27:58.548Z,97134.15
2018-08-28T13:30:27.008Z,97129.94
2018-08-28T13:32:55.340Z,97138.67
2018-08-28T13:35:23.700Z,97134.02
2018-08-28T13:37:52.649Z,97137.01
2018-08-28T13:40:21.072Z,97132.34
2018-08-28T13:42:49.433Z,97138.88
2018-08-28T13:45:17.820Z,97136.13
2018-08-28T13:47:46.157Z,97138.77
2018-08-28T13:50:14.525Z,97127.13
2018-08-28T13:52:42.856Z,97125.89
2018-08-28T13:55:11.233Z,97127.53
2018-08-28T13:57:39.760Z,97126.98
2018-08-28T14:00:08.239Z,97133.16
2018-08-28T14:02:36.499Z,97125.70
2018-08-28T14:05:04.918Z,97122.98
2018-08-28T14:07:33.257Z,97116.39
2018-08-28T14:10:01.686Z,97119.94
2018-08-28T14:12:30.039Z,97118.23
2018-08-28T14:14:58.485Z,97118.64
2018-08-28T14:17:26.876Z,97112.70
2018-08-28T14:19:55.404Z,97112.05
2018-08-28T14:22:23.760Z,97106.88
2018-08-28T14:24:52.265Z,97112.81
2018-08-28T14:27:20.648Z,97103.89
2018-08-28T14:29:49.024Z,97100.52
2018-08-28T14:32:17.614Z,97104.34
2018-08-28T14:34:45.976Z,97100.31
2018-08-28T14:37:14.332Z,97093.59
2018-08-28T14:39:42.711Z,97094.81
2018-08-28T14:42:11.697Z,97092.09
2018-08-28T14:44:40.099Z,97093.45
2018-08-28T14:47:08.465Z,97096.64
2018-08-28T14:49:36.937Z,97094.55
2018-08-28T14:52:05.260Z,97089.28
2018-08-28T14:54:33.621Z,97089.22
2018-08-28T14:57:02.076Z,97087.48
2018-08-28T14:59:30.429Z,97090.29
2018-08-28T15:01:58.808Z,97077.72
2018-08-28T15:04:27.160Z,97082.04
2018-08-28T15:06:55.563Z,97082.78
2018-08-28T15:09:23.965Z,97083.23
2018-08-28T15:11:52.326Z,97077.99
2018-08-28T15:14:20.676Z,97077.97
2018-08-28T15:16:54.841Z,97076.09
2018-08-28T15:19:23.340Z,97076.92
2018-08-28T15:21:51.692Z,97080.52
2018-08-28T15:24:20.208Z,97074.00
2018-08-28T15:26:49.216Z,97077.58
2018-08-28T15:29:17.560Z,97076.56
2018-08-28T15:31:45.915Z,97074.13
2018-08-28T15:34:14.637Z,97072.14
2018-08-28T15:36:43.031Z,97071.98
2018-08-28T15:39:15.788Z,97079.20
2018-08-28T15:41:50.616Z,97074.20
2018-08-28T15:44:19.943Z,97079.34
2018-08-28T15:46:48.291Z,97074.64
2018-08-28T15:49:17.356Z,97069.75
2018-08-28T15:51:45.751Z,97059.34
2018-08-28T15:54:14.076Z,97065.94
2018-08-28T15:56:42.585Z,97062.51
2018-08-28T15:59:10.941Z,97059.08
2018-08-28T16:01:39.292Z,97055.45
2018-08-28T16:04:10.417Z,97056.14
2018-08-28T16:06:38.800Z,97060.70
2018-08-28T16:09:07.621Z,97064.38
2018-08-28T16:11:35.987Z,97058.30
2018-08-28T16:14:04.431Z,97069.27
2018-08-28T16:16:32.777Z,97072.02
2018-08-28T16:19:01.123Z,97066.94
2018-08-28T16:21:33.905Z,97063.39
2018-08-28T16:24:02.244Z,97058.37
2018-08-28T16:26:30.608Z,97057.49
2018-08-28T16:28:58.948Z,97052.96
2018-08-28T16:31:27.633Z,97051.34
2018-08-28T16:33:56.028Z,97048.86
2018-08-28T16:36:24.331Z,97051.78
2018-08-28T16:38:52.698Z,97043.89
2018-08-28T16:41:21.049Z,97047.25
2018-08-28T16:43:49.388Z,97047.02
2018-08-28T16:46:17.741Z,97045.88
2018-08-28T16:48:46.056Z,97041.53
2018-08-28T16:51:14.423Z,97034.86
2018-08-28T16:53:42.760Z,97030.27
2018-08-28T16:56:11.115Z,97033.92
2018-08-28T16:58:39.464Z,97024.81
2018-08-28T17:01:07.902Z,97025.61
2018-08-28T17:03:36.204Z,97020.68
2018-08-28T17:06:04.677Z,97021.54
2018-08-28T17:08:33.036Z,97019.53
2018-08-28T17:11:01.396Z,97019.23
2018-08-28T17:13:29.732Z,97022.58
2018-08-28T17:15:58.102Z,97017.58
2018-08-28T17:18:26.453Z,97016.53
2018-08-28T17:20:54.839Z,97014.92
2018-08-28T17:23:24.540Z,97018.31
2018-08-28T17:25:52.900Z,97018.44
2018-08-28T17:28:22.276Z,97012.61
2018-08-28T17:30:50.703Z,97010.52
2018-08-28T17:33:19.123Z,97009.05
2018-08-28T17:35:47.598Z,97007.45
2018-08-28T17:38:15.966Z,97010.05
2018-08-28T17:40:44.352Z,97007.64
2018-08-28T17:43:12.688Z,97007.09
2018-08-28T17:45:41.149Z,97008.13
2018-08-28T17:48:09.475Z,97005.45
2018-08-28T17:50:37.809Z,96998.49
2018-08-28T17:53:06.168Z,96999.16
2018-08-28T17:55:34.512Z,97006.98
2018-08-28T17:58:02.864Z,97002.95
2018-08-28T18:00:31.217Z,97002.65
2018-08-28T18:02:59.740Z,97005.48
2018-08-28T18:05:28.080Z,97009.80
2018-08-28T18:07:56.457Z,97012.20
2018-08-28T18:10:24.792Z,97009.40
2018-08-28T18:12:53.176Z,97006.29
2018-08-28T18:15:21.516Z,97008.52
2018-08-28T18:17:49.881Z,97016.95
2018-08-28T18:20:18.246Z,97012.61
2018-08-28T18:22:47.074Z,97010.50
2018-08-28T18:25:15.451Z,97013.28
2018-08-28T18:27:43.832Z,97010.61
2018-08-28T18:30:12.168Z,97003.90
2018-08-28T18:32:40.540Z,97011.91
2018-08-28T18:35:09.212Z,97005.35
2018-08-28T18:37:37.612Z,97009.91
2018-08-28T18:40:05.984Z,97009.95
2018-08-28T18:42:34.360Z,97003.23
2018-08-28T18:45:02.710Z,97009.52
2018-08-28T18:47:31.116Z,97006.48
2018-08-28T18:49:59.612Z,97010.00
2018-08-28T18:52:27.945Z,97008.09
2018-08-28T18:54:56.308Z,97010.18
2018-08-28T18:57:24.664Z,97011.45
2018-08-28T18:59:53.012Z,97014.94
2018-08-28T19:02:21.584Z,97015.97
2018-08-28T19:04:49.940Z,97010.78
2018-08-28T19:07:18.300Z,97012.95
2018-08-28T19:09:46.629Z,97015.29
2018-08-28T19:12:14.977Z,97018.64
2018-08-28T19:14:43.467Z,97015.75
2018-08-28T19:17:11.817Z,97020.63
2018-08-28T19:19:40.157Z,97015.63
2018-08-28T19:22:08.988Z,97018.27
2018-08-28T19:24:37.600Z,97020.12
2018-08-28T19:27:06.144Z,97014.37
2018-08-28T19:29:34.470Z,97016.07
2018-08-28T19:32:02.859Z,97015.70
2018-08-28T19:34:31.510Z,97014.37
2018-08-28T19:36:59.905Z,97010.02
2018-08-28T19:39:28.280Z,97014.91
2018-08-28T19:41:56.657Z,97010.41
2018-08-28T19:44:25.018Z,97012.36
2018-08-28T19:46:53.629Z,97013.20
2018-08-28T19:49:22.540Z,97010.27
2018-08-28T19:51:53.049Z,97011.72
2018-08-28T19:54:21.381Z,97018.30
2018-08-28T19:56:49.734Z,97006.95
2018-08-28T19:59:18.084Z,97008.31
2018-08-28T20:01:46.437Z,97007.94
2018-08-28T20:04:14.793Z,97008.84
2018-08-28T20:06:43.145Z,97008.61
2018-08-28T20:09:11.496Z,97004.39
2018-08-28T20:11:39.824Z,97002.52
2018-08-28T20:14:08.209Z,97003.05
2018-08-28T20:16:36.620Z,97000.60
2018-08-28T20:19:05.155Z,97001.12
2018-08-28T20:21:34.106Z,96998.69
2018-08-28T20:24:02.949Z,96997.75
2018-08-28T20:26:31.368Z,96992.36
2018-08-28T20:28:59.778Z,96994.17
2018-08-28T20:31:28.125Z,96983.57
2018-08-28T20:33:56.503Z,96986.48
2018-08-28T20:36:24.844Z,96990.31
2018-08-28T20:38:53.209Z,96988.73
2018-08-28T20:41:21.581Z,96988.19
2018-08-28T20:43:49.932Z,96984.98
2018-08-28T20:46:18.996Z,96985.77
2018-08-28T20:48:47.356Z,96985.74
2018-08-28T20:51:15.712Z,96977.94
2018-08-28T20:53:44.128Z,96974.73
2018-08-28T20:56:12.420Z,96976.95
2018-08-28T20:58:40.812Z,96972.83
2018-08-28T21:01:09.152Z,96961.71
2018-08-28T21:03:37.960Z,96953.89
2018-08-28T21:06:06.596Z,96951.09
2018-08-28T21:08:34.964Z,96948.45
2018-08-28T21:11:03.301Z,96947.23
2018-08-28T21:13:31.644Z,96949.97
2018-08-28T21:15:59.972Z,96944.73
2018-08-28T21:18:28.356Z,96942.72
2018-08-28T21:20:56.720Z,96941.65
2018-08-28T21:23:25.060Z,96940.97
2018-08-28T21:25:53.434Z,96936.91
2018-08-28T21:28:21.804Z,96942.39
2018-08-28T21:30:50.144Z,96945.53
2018-08-28T21:33:18.589Z,96945.28
2018-08-28T21:35:46.942Z,96948.53
2018-08-28T21:38:15.284Z,96946.05
2018-08-28T21:40:43.624Z,96943.66
2018-08-28T21:43:11.996Z,96937.61
2018-08-28T21:45:41.005Z,96936.63
2018-08-28T21:48:09.370Z,96930.95
2018-08-28T21:50:37.720Z,96926.69
2018-08-28T21:53:06.522Z,96926.28
2018-08-28T21:55:34.884Z,96927.43
2018-08-28T21:58:03.272Z,96929.63
2018-08-28T22:00:31.618Z,96930.63
2018-08-28T22:02:59.972Z,96928.84
2018-08-28T22:05:31.096Z,96928.63
2018-08-28T22:08:02.086Z,96927.33
2018-08-28T22:10:32.344Z,96917.42
2018-08-28T22:13:00.698Z,96919.09
2018-08-28T22:15:29.235Z,96919.64
2018-08-28T22:17:57.575Z,96922.80
2018-08-28T22:20:25.905Z,96918.72
2018-08-28T22:22:55.024Z,96920.20
2018-08-28T22:25:23.549Z,96925.39
2018-08-28T22:27:51.836Z,96924.31
2018-08-28T22:30:20.175Z,96918.48
2018-08-28T22:32:48.497Z,96922.33
2018-08-28T22:35:16.837Z,96920.66
2018-08-28T22:37:45.124Z,96928.44
2018-08-28T22:40:14.078Z,96928.09
2018-08-28T22:42:42.552Z,96921.88
2018-08-28T22:45:10.993Z,96923.00
2018-08-28T22:47:39.304Z,96921.06
2018-08-28T22:50:07.948Z,96915.64
2018-08-28T22:52:36.260Z,96911.58
2018-08-28T22:55:04.721Z,96907.95
2018-08-28T22:57:33.015Z,96912.80
2018-08-28T23:00:01.378Z,96913.28
2018-08-28T23:02:29.681Z,96918.30
2018-08-28T23:04:58.008Z,96903.42
2018-08-28T23:07:26.596Z,96901.75
2018-08-28T23:09:54.932Z,96899.37
2018-08-28T23:12:23.272Z,96891.95
2018-08-28T23:14:51.612Z,96897.13
2018-08-28T23:17:19.917Z,96897.00
2018-08-28T23:19:48.248Z,96902.17
2018-08-28T23:22:16.543Z,96888.59
2018-08-28T23:24:45.292Z,96885.11
2018-08-28T23:27:13.624Z,96873.81
2018-08-28T23:29:41.945Z,96880.84
2018-08-28T23:32:10.241Z,96876.45
2018-08-28T23:34:38.567Z,96873.77
2018-08-28T23:37:07.252Z,96869.16
2018-08-28T23:39:35.563Z,96868.87
2018-08-28T23:42:03.872Z,96861.42
2018-08-28T23:44:32.188Z,96858.48
2018-08-28T23:47:00.484Z,96854.23
2018-08-28T23:49:28.787Z,96859.02
2018-08-28T23:51:57.119Z,96856.42
2018-08-28T23:54:25.428Z,96854.54
2018-08-28T23:56:53.724Z,96857.45
2018-08-28T23:59:22.040Z,96858.47
